Time;durP1;ratioP1;P1;durP2;ratioP2;P2;SDS_P1;SDS_P2;PMS_P1;PMS_P2;Temp;Humidity;BMP_temperature;BMP_pressure;BME280_temperature;BME280_humidity;BME280_pressure;Samples;Min_cycle;Max_cycle;Signal;HPM_P1;HPM_P2
2021/03/25 00:00:09;;;;;;;16.92;7.22;;;;;;;1.45;76.34;97262.56;5003968;28;20486;-63
2021/03/25 00:02:35;;;;;;;12.98;7.30;;;;;;;1.32;75.87;97264.13;5015659;28;20433;-61
2021/03/25 00:05:01;;;;;;;15.07;7.15;;;;;;;1.05;78.07;97255.88;5011400;28;20064;-63
2021/03/25 00:07:26;;;;;;;13.80;6.80;;;;;;;0.76;79.82;97257.59;5006806;28;20048;-62
2021/03/25 00:09:52;;;;;;;17.90;7.35;;;;;;;0.67;79.65;97253.94;5005491;28;20129;-61
2021/03/25 00:12:17;;;;;;;14.15;7.15;;;;;;;0.60;80.14;97255.38;5004531;28;20068;-62
2021/03/25 00:14:42;;;;;;;14.10;6.93;;;;;;;0.70;79.83;97257.94;5004499;28;20474;-62
2021/03/25 00:17:08;;;;;;;14.65;7.03;;;;;;;0.81;80.10;97262.13;4999872;28;20121;-61
2021/03/25 00:19:33;;;;;;;13.77;7.53;;;;;;;0.88;78.80;97251.78;5008714;28;20560;-63
2021/03/25 00:21:59;;;;;;;13.90;6.88;;;;;;;0.83;78.32;97248.34;5013514;28;20034;-61
2021/03/25 00:24:24;;;;;;;13.95;6.07;;;;;;;0.66;79.26;97238.84;4998711;28;20085;-60
2021/03/25 00:26:49;;;;;;;14.57;7.30;;;;;;;0.53;79.90;97247.63;5003030;28;20034;-60
2021/03/25 00:29:16;;;;;;;18.13;7.25;;;;;;;0.49;80.57;97243.91;4999071;28;20057;-60
2021/03/25 00:31:43;;;;;;;14.27;6.78;;;;;;;0.56;80.69;97241.69;5004311;28;20046;-60
2021/03/25 00:34:09;;;;;;;17.42;7.35;;;;;;;0.61;80.18;97238.91;4999209;28;20489;-60
2021/03/25 00:36:34;;;;;;;16.67;6.97;;;;;;;0.78;79.98;97246.53;5004312;28;20046;-61
2021/03/25 00:39:00;;;;;;;16.30;6.85;;;;;;;0.95;79.44;97243.31;5004893;28;20061;-62
2021/03/25 00:41:28;;;;;;;15.38;7.10;;;;;;;1.05;78.81;97239.69;5017132;28;20475;-62
2021/03/25 00:43:54;;;;;;;15.32;6.40;;;;;;;1.20;78.13;97238.66;5007340;28;20483;-62
2021/03/25 00:46:20;;;;;;;13.50;6.35;;;;;;;1.13;78.75;97239.03;4999919;28;20146;-63
2021/03/25 00:48:46;;;;;;;14.55;6.32;;;;;;;1.10;78.26;97240.41;5004205;28;20034;-60
2021/03/25 00:51:11;;;;;;;16.90;7.28;;;;;;;1.13;78.51;97236.31;4997527;28;20475;-60
2021/03/25 00:53:37;;;;;;;14.30;7.03;;;;;;;1.10;78.18;97248.50;5003649;28;20443;-62
2021/03/25 00:56:05;;;;;;;12.05;6.03;;;;;;;1.11;78.24;97230.44;5009742;28;20556;-59
2021/03/25 00:58:31;;;;;;;10.15;5.50;;;;;;;1.04;78.47;97229.97;5008325;28;20053;-60
2021/03/25 01:00:58;;;;;;;16.40;6.72;;;;;;;0.99;78.56;97228.19;5013054;28;20042;-59
2021/03/25 01:03:25;;;;;;;15.10;6.50;;;;;;;0.90;78.29;97227.19;4998767;28;20042;-60
2021/03/25 01:05:51;;;;;;;11.35;5.97;;;;;;;0.80;79.06;97228.16;5003498;28;20454;-60
2021/03/25 01:08:16;;;;;;;11.30;5.85;;;;;;;0.71;78.39;97222.59;5012978;28;20117;-59
2021/03/25 01:10:46;;;;;;;15.80;6.90;;;;;;;0.61;78.81;97221.94;5023303;28;20038;-60
2021/03/25 01:13:17;;;;;;;17.52;7.28;;;;;;;0.41;79.65;97222.97;5017381;28;20088;-59
2021/03/25 01:15:43;;;;;;;15.55;6.78;;;;;;;-0.17;82.82;97218.50;5013505;28;20449;-60
2021/03/25 01:18:09;;;;;;;17.95;7.55;;;;;;;-0.34;84.46;97217.03;4996783;28;20037;-61
2021/03/25 01:20:38;;;;;;;18.02;6.70;;;;;;;-0.31;84.39;97221.81;5003722;28;20049;-59
2021/03/25 01:23:05;;;;;;;18.15;6.78;;;;;;;-0.07;84.20;97221.88;4999096;28;20067;-59
2021/03/25 01:25:32;;;;;;;17.60;6.85;;;;;;;0.08;83.53;97231.69;5016304;28;20042;-58
2021/03/25 01:28:04;;;;;;;12.10;5.95;;;;;;;0.28;82.17;97221.78;5003296;28;20096;-59
2021/03/25 01:30:31;;;;;;;11.80;5.65;;;;;;;0.47;81.42;97213.72;5002017;28;20108;-59
2021/03/25 01:32:58;;;;;;;15.45;6.15;;;;;;;0.60;80.93;97209.56;5002054;28;20042;-58
2021/03/25 01:35:25;;;;;;;15.88;6.00;;;;;;;0.73;79.82;97216.91;4990259;28;20948;-61
2021/03/25 01:37:51;;;;;;;9.75;5.47;;;;;;;0.73;79.57;97211.53;5004697;28;20082;-57
2021/03/25 01:40:31;;;;;;;12.05;5.53;;;;;;;0.68;78.93;97209.69;5001418;28;20045;-59
2021/03/25 01:43:24;;;;;;;13.43;5.68;;;;;;;0.60;79.25;97212.25;5010174;28;20604;-61
2021/03/25 01:45:57;;;;;;;12.40;5.93;;;;;;;0.52;79.23;97210.97;5008500;28;20042;-62
2021/03/25 01:48:26;;;;;;;15.88;6.18;;;;;;;0.50;79.43;97197.78;5009455;28;20517;-62
2021/03/25 01:50:57;;;;;;;15.27;5.70;;;;;;;0.45;79.50;97202.44;5015585;28;20142;-61
2021/03/25 01:53:31;;;;;;;11.00;5.35;;;;;;;0.32;79.81;97203.94;5003823;28;20049;-61
2021/03/25 01:56:14;;;;;;;15.15;5.68;;;;;;;0.35;80.57;97204.19;5013812;28;20042;-62
2021/03/25 01:58:51;;;;;;;14.82;6.88;;;;;;;0.47;80.32;97202.94;5014802;28;20080;-61
2021/03/25 02:01:28;;;;;;;11.93;5.80;;;;;;;0.49;79.96;97198.91;5025937;28;20045;-61
2021/03/25 02:04:06;;;;;;;9.55;5.47;;;;;;;0.49;80.21;97192.72;5037955;28;20080;-61
2021/03/25 02:06:35;;;;;;;13.80;6.20;;;;;;;0.49;79.80;97198.09;5021397;28;20080;-62
2021/03/25 02:09:18;;;;;;;12.25;6.00;;;;;;;0.44;80.47;97198.16;5015566;28;20072;-61
2021/03/25 02:11:59;;;;;;;17.75;6.43;;;;;;;0.38;80.22;97203.59;5017862;28;20040;-63
2021/03/25 02:14:43;;;;;;;12.68;6.35;;;;;;;0.40;79.75;97200.63;5008935;28;20038;-58
2021/03/25 02:17:27;;;;;;;15.27;6.45;;;;;;;0.32;79.82;97193.97;4999825;28;20073;-58
2021/03/25 02:20:11;;;;;;;11.07;5.68;;;;;;;0.22;79.88;97193.28;5002166;28;20045;-60
2021/03/25 02:22:54;;;;;;;19.77;6.13;;;;;;;0.16;80.06;97197.94;5002161;28;20042;-59
2021/03/25 02:25:32;;;;;;;13.45;5.47;;;;;;;0.10;80.18;97183.72;4997495;28;20056;-60
2021/03/25 02:28:10;;;;;;;12.52;5.88;;;;;;;0.04;80.31;97192.97;5002453;28;20046;-59
2021/03/25 02:30:44;;;;;;;12.63;6.20;;;;;;;0.09;80.87;97192.09;5004126;28;20046;-60
2021/03/25 02:33:14;;;;;;;13.02;6.00;;;;;;;0.08;80.25;97183.22;5001607;28;20169;-60
2021/03/25 02:35:46;;;;;;;16.55;5.72;;;;;;;-0.01;80.39;97190.31;5001753;28;20402;-62
2021/03/25 02:38:21;;;;;;;12.90;5.70;;;;;;;-0.04;80.95;97185.50;5005918;28;20037;-60
2021/03/25 02:40:51;;;;;;;10.77;5.70;;;;;;;0.01;80.47;97192.72;5035843;28;20059;-62
2021/03/25 02:43:41;;;;;;;13.65;5.78;;;;;;;-0.07;80.38;97191.47;5015661;28;20099;-58
2021/03/25 02:46:16;;;;;;;;;;;;;;;-0.14;80.59;97194.50;4984294;28;20518;-62
2021/03/25 02:48:45;;;;;;;16.05;5.65;;;;;;;-0.16;80.71;97193.16;5008393;28;19931;-59
2021/03/25 02:51:21;;;;;;;14.23;5.70;;;;;;;-0.13;80.77;97197.97;4995147;28;20048;-60
2021/03/25 02:53:48;;;;;;;16.95;6.07;;;;;;;-0.15;80.62;97197.47;5008237;28;20137;-59
2021/03/25 02:56:23;;;;;;;12.80;6.22;;;;;;;-0.01;81.09;97187.63;5004170;28;20045;-60
2021/03/25 02:59:02;;;;;;;11.18;5.60;;;;;;;-0.02;80.97;97196.78;5009382;28;20045;-59
2021/03/25 03:01:36;;;;;;;12.35;6.05;;;;;;;-0.08;81.29;97187.97;5003361;28;20088;-60
2021/03/25 03:04:27;;;;;;;10.60;5.68;;;;;;;-0.28;80.72;97188.16;4998253;28;20462;-58
2021/03/25 03:07:02;;;;;;;14.32;5.20;;;;;;;-0.43;81.22;97195.31;5014901;28;20553;-60
2021/03/25 03:09:35;;;;;;;13.98;6.60;;;;;;;-0.47;81.65;97191.59;5018234;28;20045;-61
2021/03/25 03:12:04;;;;;;;15.27;6.30;;;;;;;-0.54;82.12;97185.72;5021701;28;20048;-59
2021/03/25 03:14:38;;;;;;;10.27;6.13;;;;;;;-0.53;82.76;97192.69;5009884;28;20726;-61
2021/03/25 03:17:12;;;;;;;16.73;6.47;;;;;;;-0.57;82.76;97186.28;4978495;28;20288;-57
2021/03/25 03:20:03;;;;;;;13.63;6.20;;;;;;;-0.64;83.30;97188.50;4982777;28;20117;-60
2021/03/25 03:22:29;;;;;;;13.20;6.25;;;;;;;-0.58;83.20;97190.03;5003644;28;20054;-59
2021/03/25 03:24:54;;;;;;;11.85;5.93;;;;;;;-0.43;83.61;97191.81;4999255;28;20046;-61
2021/03/25 03:27:43;;;;;;;13.05;5.47;;;;;;;-0.34;83.07;97187.41;4997133;28;20041;-62
2021/03/25 03:30:16;;;;;;;12.93;6.03;;;;;;;-0.22;82.22;97189.72;5000315;28;20097;-61
2021/03/25 03:33:20;;;;;;;18.00;6.20;;;;;;;-0.12;81.98;97191.53;4983799;28;20499;-60
2021/03/25 03:35:55;;;;;;;14.63;6.38;;;;;;;-0.43;81.29;97184.53;4921433;29;20043;-60
2021/03/25 03:38:30;;;;;;;16.58;6.47;;;;;;;-0.69;81.26;97183.16;4917278;29;20079;-62
2021/03/25 03:40:57;;;;;;;13.45;6.97;;;;;;;-0.75;81.89;97192.34;4976624;28;20121;-62
2021/03/25 03:43:24;;;;;;;13.18;6.82;;;;;;;-0.65;83.33;97186.88;5004429;28;20060;-61
2021/03/25 03:46:13;;;;;;;12.63;5.78;;;;;;;-0.60;82.90;97190.31;4997764;28;20050;-60
2021/03/25 03:49:10;;;;;;;16.27;6.43;;;;;;;-0.45;82.73;97192.09;5002748;28;20046;-58
2021/03/25 03:51:41;;;;;;;14.68;6.00;;;;;;;-0.33;82.20;97190.91;4967965;28;20498;-59
2021/03/25 03:54:07;;;;;;;12.70;5.65;;;;;;;-0.31;82.16;97194.91;4995650;28;20557;-58
2021/03/25 03:56:42;;;;;;;13.55;5.95;;;;;;;-0.30;81.88;97193.03;5007034;28;20045;-60
2021/03/25 03:59:14;;;;;;;11.35;5.85;;;;;;;-0.32;81.92;97197.91;5000891;28;20050;-60
2021/03/25 04:01:48;;;;;;;11.35;5.80;;;;;;;-0.34;81.39;97200.06;5010312;28;20068;-60
2021/03/25 04:04:24;;;;;;;13.27;6.32;;;;;;;-0.37;81.83;97196.06;5006505;28;20453;-60
2021/03/25 04:07:04;;;;;;;13.68;6.07;;;;;;;-0.43;82.13;97200.69;4998374;28;20046;-60
2021/03/25 04:09:37;;;;;;;12.25;5.78;;;;;;;-0.40;82.21;97196.63;4996064;28;20046;-61
2021/03/25 04:12:11;;;;;;;15.73;6.15;;;;;;;-0.39;81.95;97203.63;5005600;28;20048;-61
2021/03/25 04:14:49;;;;;;;11.95;5.45;;;;;;;-0.57;81.91;97199.75;5007923;28;20049;-59
2021/03/25 04:17:27;;;;;;;12.80;6.32;;;;;;;-0.60;82.34;97197.59;4982305;28;20049;-59
2021/03/25 04:19:56;;;;;;;18.33;7.00;;;;;;;-0.56;82.29;97198.63;5006024;28;20148;-60
2021/03/25 04:22:25;;;;;;;10.82;5.50;;;;;;;-0.63;82.10;97203.53;5002955;28;20195;-57
2021/03/25 04:25:02;;;;;;;10.10;5.45;;;;;;;-0.69;82.26;97191.22;4993597;28;20046;-61
2021/03/25 04:27:33;;;;;;;10.85;5.53;;;;;;;-0.62;82.89;97194.41;4989132;28;20737;-60
2021/03/25 04:30:04;;;;;;;11.93;6.03;;;;;;;-0.59;82.45;97193.84;5006984;28;20148;-60
2021/03/25 04:32:30;;;;;;;12.02;6.25;;;;;;;-0.62;82.97;97189.81;5013014;28;20053;-57
2021/03/25 04:34:56;;;;;;;13.73;5.88;;;;;;;-0.71;82.81;97188.81;5009797;28;20041;-58
2021/03/25 04:37:24;;;;;;;10.52;5.30;;;;;;;-0.70;83.23;97185.06;4999700;28;22039;-57
2021/03/25 04:39:50;;;;;;;11.90;5.97;;;;;;;-0.63;83.37;97190.09;4988737;28;20076;-61
2021/03/25 04:42:16;;;;;;;11.25;6.45;;;;;;;-0.78;83.21;97199.88;4976939;28;20384;-57
2021/03/25 04:44:49;;;;;;;15.52;6.22;;;;;;;-0.89;83.32;97197.56;5006102;28;20054;-61
2021/03/25 04:47:35;;;;;;;12.55;6.65;;;;;;;-0.93;83.43;97200.00;4983349;28;20514;-60
2021/03/25 04:50:09;;;;;;;15.95;5.75;;;;;;;-1.02;83.47;97197.09;4993040;28;20486;-58
2021/03/25 04:52:35;;;;;;;15.93;6.05;;;;;;;-1.06;83.78;97190.69;4995851;28;20046;-60
2021/03/25 04:55:08;;;;;;;13.55;7.03;;;;;;;-0.92;84.65;97195.44;5004570;28;20048;-57
2021/03/25 04:57:38;;;;;;;14.50;6.00;;;;;;;-0.83;83.72;97197.25;5005132;28;20057;-60
2021/03/25 05:00:13;;;;;;;11.45;5.97;;;;;;;-0.79;83.08;97195.59;5008579;28;20116;-62
2021/03/25 05:02:39;;;;;;;13.85;6.07;;;;;;;-0.72;83.12;97197.16;5004816;28;20057;-57
2021/03/25 05:05:06;;;;;;;16.42;6.28;;;;;;;-0.76;82.83;97199.59;5001480;28;20083;-59
2021/03/25 05:07:35;;;;;;;12.15;6.28;;;;;;;-0.69;82.82;97196.59;5018948;28;20106;-62
2021/03/25 05:10:02;;;;;;;13.50;6.45;;;;;;;-0.65;82.99;97195.78;5008421;28;20065;-60
2021/03/25 05:12:29;;;;;;;12.45;6.30;;;;;;;-0.66;82.45;97196.84;5002697;28;20188;-58
2021/03/25 05:15:14;;;;;;;14.57;5.60;;;;;;;-0.61;82.24;97207.56;5011446;28;20095;-58
2021/03/25 05:17:59;;;;;;;13.38;5.65;;;;;;;-0.69;81.69;97207.38;5010007;28;20078;-59
2021/03/25 05:20:41;;;;;;;16.13;6.38;;;;;;;-0.82;81.64;97204.22;5008461;28;20136;-59
2021/03/25 05:23:33;;;;;;;12.55;5.65;;;;;;;-0.89;81.05;97205.63;4988657;28;20463;-59
2021/03/25 05:26:05;;;;;;;13.68;6.00;;;;;;;-0.71;82.83;97212.22;5014992;28;20116;-60
2021/03/25 05:28:37;;;;;;;13.05;7.07;;;;;;;-0.36;82.13;97207.63;5013534;28;20033;-61
2021/03/25 05:31:07;;;;;;;13.20;5.45;;;;;;;0.20;81.77;97204.38;5012216;28;20072;-60
2021/03/25 05:33:34;;;;;;;13.35;5.90;;;;;;;0.95;77.82;97203.69;5014089;28;20057;-58
2021/03/25 05:36:03;;;;;;;13.80;6.18;;;;;;;1.55;74.74;97204.09;4998454;28;20056;-58
2021/03/25 05:38:29;;;;;;;18.17;5.38;;;;;;;2.05;71.90;97201.59;4996535;28;20042;-60
2021/03/25 05:41:03;;;;;;;12.88;5.57;;;;;;;2.49;70.81;97197.53;5005767;28;20103;-61
2021/03/25 05:44:00;;;;;;;10.95;5.45;;;;;;;2.99;67.61;97196.72;5005362;28;20046;-62
2021/03/25 05:46:40;;;;;;;14.73;5.32;;;;;;;3.37;66.65;97197.22;4990104;28;20061;-60
2021/03/25 05:49:12;;;;;;;12.02;5.45;;;;;;;3.15;67.01;97206.13;4994720;28;20057;-61
2021/03/25 05:51:52;;;;;;;10.10;4.95;;;;;;;3.62;65.19;97206.63;5029495;28;20045;-61
2021/03/25 05:54:22;;;;;;;11.60;5.55;;;;;;;4.06;63.48;97206.06;5011895;28;20037;-60
2021/03/25 05:56:50;;;;;;;10.38;4.75;;;;;;;4.57;62.05;97208.19;5030297;28;20068;-61
2021/03/25 05:59:20;;;;;;;8.38;4.45;;;;;;;5.17;59.99;97209.41;5002675;28;20103;-62
2021/03/25 06:02:02;;;;;;;7.88;3.72;;;;;;;5.47;58.62;97214.19;5014642;28;20038;-62
2021/03/25 06:04:29;;;;;;;13.25;5.45;;;;;;;6.09;56.76;97213.00;5025046;28;20053;-63
2021/03/25 06:07:09;;;;;;;10.23;4.82;;;;;;;5.76;57.82;97216.22;5008559;28;20411;-62
2021/03/25 06:09:49;;;;;;;;;;;;;;;6.21;55.71;97217.75;5015612;28;20062;-62
2021/03/25 06:12:36;;;;;;;12.82;5.60;;;;;;;7.16;53.89;97219.19;5005246;28;19921;-65
2021/03/25 06:15:57;;;;;;;17.05;7.53;;;;;;;7.72;52.13;97213.44;5016086;28;20045;-62
2021/03/25 06:18:46;;;;;;;14.77;5.97;;;;;;;8.00;49.90;97219.09;4948639;28;20059;-61
2021/03/25 06:21:33;;;;;;;12.10;5.50;;;;;;;8.81;48.41;97229.59;5001452;28;20132;-61
2021/03/25 06:24:49;;;;;;;13.40;5.25;;;;;;;8.71;48.56;97225.34;5010514;28;20041;-61
2021/03/25 06:27:33;;;;;;;14.55;6.68;;;;;;;7.08;53.46;97229.00;4982198;28;20046;-60
2021/03/25 06:30:09;;;;;;;12.52;6.05;;;;;;;7.40;52.89;97223.97;5014814;28;20049;-61
2021/03/25 06:32:51;;;;;;;13.55;5.65;;;;;;;7.68;52.89;97225.34;5008404;28;20057;-60
2021/03/25 06:35:22;;;;;;;16.83;8.52;;;;;;;5.79;57.39;97228.38;4997644;28;20124;-62
2021/03/25 06:38:00;;;;;;;16.25;6.47;;;;;;;4.63;61.71;97230.53;5004527;28;20052;-60
2021/03/25 06:40:39;;;;;;;16.80;8.18;;;;;;;4.36;64.84;97235.06;4991078;28;20049;-59
2021/03/25 06:43:28;;;;;;;22.02;10.00;;;;;;;3.32;68.75;97235.22;4988544;28;20041;-58
2021/03/25 06:46:02;;;;;;;21.85;15.15;;;;;;;3.01;70.65;97225.09;4972699;28;20045;-61
2021/03/25 06:49:15;;;;;;;17.85;7.47;;;;;;;4.22;68.36;97237.09;4985538;28;20395;-60
2021/03/25 06:51:42;;;;;;;11.27;5.50;;;;;;;5.92;60.37;97235.56;4906914;29;20047;-63
2021/03/25 06:54:14;;;;;;;21.23;6.10;;;;;;;7.89;55.72;97226.13;4971284;28;20568;-61
2021/03/25 06:56:43;;;;;;;14.77;5.57;;;;;;;9.73;49.93;97240.91;5007986;28;20145;-61
2021/03/25 06:59:17;;;;;;;21.10;5.93;;;;;;;10.98;46.54;97228.84;5014930;28;20055;-61
2021/03/25 07:01:45;;;;;;;10.70;5.30;;;;;;;12.00;44.66;97227.91;5005799;28;20053;-59
2021/03/25 07:04:29;;;;;;;19.73;7.97;;;;;;;11.51;45.17;97228.47;5009058;28;20029;-62
2021/03/25 07:07:02;;;;;;;19.58;7.03;;;;;;;11.26;44.27;97239.69;5021706;28;20145;-62
2021/03/25 07:09:35;;;;;;;15.82;6.38;;;;;;;10.13;46.89;97243.56;5018420;28;20136;-61
2021/03/25 07:12:06;;;;;;;12.20;5.47;;;;;;;10.16;48.95;97247.56;5016024;28;20521;-59
2021/03/25 07:14:37;;;;;;;9.57;5.53;;;;;;;11.34;46.39;97246.13;5005328;28;20467;-61
2021/03/25 07:17:04;;;;;;;10.52;5.38;;;;;;;11.51;43.98;97237.47;5001373;28;20355;-60
2021/03/25 07:19:34;;;;;;;10.32;5.10;;;;;;;12.55;42.34;97236.75;5008355;28;20398;-61
2021/03/25 07:22:24;;;;;;;9.80;4.47;;;;;;;12.92;42.43;97241.66;5011957;28;20095;-62
2021/03/25 07:24:52;;;;;;;13.35;4.32;;;;;;;13.13;42.04;97237.69;5020849;28;20104;-62
2021/03/25 07:27:19;;;;;;;10.25;4.85;;;;;;;13.29;41.68;97241.06;5015841;28;20129;-61
2021/03/25 07:30:02;;;;;;;12.00;5.22;;;;;;;13.02;42.06;97245.75;5016638;28;20044;-59
2021/03/25 07:32:39;;;;;;;11.50;6.18;;;;;;;11.29;47.17;97245.25;5008244;28;20044;-63
2021/03/25 07:35:26;;;;;;;14.45;6.20;;;;;;;12.13;44.82;97234.03;5001910;28;20060;-61
2021/03/25 07:37:52;;;;;;;17.80;5.15;;;;;;;13.12;42.03;97247.84;5004486;28;20038;-61
2021/03/25 07:40:23;;;;;;;8.88;4.78;;;;;;;13.44;42.48;97242.06;4998000;28;20042;-62
2021/03/25 07:42:49;;;;;;;12.60;4.82;;;;;;;13.18;42.47;97246.41;4999227;28;20081;-62
2021/03/25 07:45:27;;;;;;;9.45;5.07;;;;;;;13.48;42.07;97245.66;5000214;28;20076;-62
2021/03/25 07:47:54;;;;;;;10.85;5.22;;;;;;;13.39;42.11;97248.66;5009196;28;20061;-61
2021/03/25 07:50:31;;;;;;;14.15;6.10;;;;;;;14.01;41.79;97246.69;5015365;28;20045;-62
2021/03/25 07:52:57;;;;;;;16.15;6.38;;;;;;;15.57;38.20;97242.91;5001277;28;20033;-61
2021/03/25 07:55:23;;;;;;;25.98;6.47;;;;;;;16.19;36.65;97244.00;4995753;28;20560;-62
2021/03/25 07:57:52;;;;;;;13.20;5.57;;;;;;;15.24;37.56;97241.94;4997469;28;20034;-63
2021/03/25 08:00:23;;;;;;;10.45;5.70;;;;;;;13.78;41.65;97250.38;4994431;28;20050;-62
2021/03/25 08:03:18;;;;;;;12.43;5.95;;;;;;;14.19;40.94;97255.97;5006834;28;20069;-60
2021/03/25 08:05:49;;;;;;;13.98;6.22;;;;;;;13.81;41.75;97248.81;5018598;28;20042;-61
2021/03/25 08:08:29;;;;;;;12.82;6.15;;;;;;;15.55;38.71;97253.56;5016438;28;20505;-61
2021/03/25 08:11:14;;;;;;;15.50;6.28;;;;;;;16.97;35.86;97248.09;5030770;28;20075;-61
2021/03/25 08:14:10;;;;;;;14.13;7.10;;;;;;;14.44;40.09;97255.44;5028602;28;20033;-62
2021/03/25 08:16:43;;;;;;;17.90;7.03;;;;;;;15.12;38.92;97245.00;4991291;28;20763;-61
2021/03/25 08:19:35;;;;;;;16.42;6.57;;;;;;;16.82;35.02;97261.88;4989536;28;20052;-60
2021/03/25 08:22:10;;;;;;;11.45;6.88;;;;;;;16.34;34.69;97253.13;4999775;28;20107;-60
2021/03/25 08:24:54;;;;;;;17.70;8.60;;;;;;;16.38;34.73;97251.16;5000690;28;20046;-60
2021/03/25 08:27:28;;;;;;;15.48;7.60;;;;;;;17.25;33.29;97247.28;5007665;28;20040;-60
2021/03/25 08:30:22;;;;;;;11.18;6.00;;;;;;;17.32;33.07;97254.78;5007448;28;20525;-62
2021/03/25 08:33:25;;;;;;;8.80;5.30;;;;;;;16.95;32.40;97247.69;5011332;28;20057;-62
2021/03/25 08:35:59;;;;;;;10.40;5.93;;;;;;;17.54;32.17;97245.25;4985663;28;20048;-62
2021/03/25 08:38:33;;;;;;;10.23;5.38;;;;;;;17.87;32.53;97247.94;4983302;28;20537;-62
2021/03/25 08:41:05;;;;;;;10.52;5.43;;;;;;;18.67;31.55;97247.13;4995002;28;20557;-62
2021/03/25 08:43:40;;;;;;;10.32;5.63;;;;;;;19.01;30.63;97243.72;5010845;28;20056;-61
2021/03/25 08:46:12;;;;;;;10.45;5.20;;;;;;;17.84;32.18;97246.72;5019956;28;20038;-62
2021/03/25 08:48:44;;;;;;;11.13;5.95;;;;;;;17.06;34.39;97254.00;5023406;28;20192;-61
2021/03/25 08:51:23;;;;;;;12.43;6.38;;;;;;;15.73;38.23;97244.59;5019739;28;20101;-63
2021/03/25 08:53:54;;;;;;;11.90;5.95;;;;;;;17.08;35.31;97250.84;5013675;28;20498;-61
2021/03/25 08:56:30;;;;;;;10.75;6.47;;;;;;;16.58;35.74;97246.88;5005544;28;20103;-61
2021/03/25 08:58:59;;;;;;;11.15;6.03;;;;;;;17.36;34.59;97248.06;5002277;28;20034;-61
2021/03/25 09:01:39;;;;;;;16.35;6.57;;;;;;;16.87;35.76;97238.63;4995826;28;20049;-59
2021/03/25 09:04:09;;;;;;;;;;;;;;;16.51;36.59;97238.56;4986858;28;20050;-63
2021/03/25 09:06:39;;;;;;;;;;;;;;;15.31;37.72;97246.72;5001511;28;19921;-61
2021/03/25 09:09:28;;;;;;;37.15;8.55;;;;;;;15.59;38.07;97245.28;4989659;28;19927;-62
2021/03/25 09:11:56;;;;;;;15.05;6.28;;;;;;;15.54;38.89;97249.25;5014104;28;20041;-62
2021/03/25 09:14:24;;;;;;;12.65;6.65;;;;;;;16.48;36.55;97244.09;4999872;28;20042;-62
2021/03/25 09:16:50;;;;;;;15.80;6.53;;;;;;;16.60;35.84;97238.16;5004290;28;20045;-63
2021/03/25 09:19:27;;;;;;;26.08;7.18;;;;;;;17.41;34.26;97237.75;4995970;28;20053;-63
2021/03/25 09:21:55;;;;;;;14.45;6.63;;;;;;;17.10;34.67;97245.72;5019197;28;20461;-63
2021/03/25 09:24:21;;;;;;;9.23;6.07;;;;;;;15.53;36.68;97239.34;5015118;28;20041;-63
2021/03/25 09:27:02;;;;;;;15.15;6.80;;;;;;;15.28;38.46;97241.97;5019352;28;20049;-61
2021/03/25 09:29:31;;;;;;;14.70;6.88;;;;;;;15.99;36.81;97229.72;5018836;28;20045;-62
2021/03/25 09:31:56;;;;;;;13.77;6.43;;;;;;;15.34;38.30;97232.16;4987751;28;20038;-60
2021/03/25 09:34:24;;;;;;;13.32;6.10;;;;;;;16.30;36.29;97233.00;4978661;28;20481;-62
2021/03/25 09:36:56;;;;;;;14.20;6.10;;;;;;;17.57;34.04;97230.59;5013909;28;20069;-62
2021/03/25 09:39:29;;;;;;;12.05;5.65;;;;;;;17.36;34.07;97231.44;5007842;28;20111;-61
2021/03/25 09:41:58;;;;;;;14.35;6.50;;;;;;;17.41;33.02;97224.69;5003231;28;20065;-61
2021/03/25 09:44:31;;;;;;;15.45;6.05;;;;;;;17.58;33.45;97229.41;4998452;28;20041;-62
2021/03/25 09:46:59;;;;;;;12.35;6.63;;;;;;;17.02;33.90;97222.00;5001600;28;20398;-62
2021/03/25 09:49:41;;;;;;;16.67;7.18;;;;;;;17.78;33.74;97226.97;4990581;28;20600;-62
2021/03/25 09:52:06;;;;;;;13.70;7.10;;;;;;;17.76;34.81;97223.03;4998342;28;20029;-62
2021/03/25 09:54:33;;;;;;;16.70;7.88;;;;;;;17.17;33.67;97220.78;5023083;28;20041;-59
2021/03/25 09:57:17;;;;;;;12.40;6.20;;;;;;;17.96;33.18;97231.69;5021958;28;20044;-60
2021/03/25 09:59:52;;;;;;;12.13;6.57;;;;;;;18.00;33.11;97229.66;5022588;28;20140;-60
2021/03/25 10:02:39;;;;;;;10.65;5.97;;;;;;;17.68;33.59;97229.78;5000755;28;20205;-61
2021/03/25 10:05:39;;;;;;;15.60;6.90;;;;;;;17.24;33.94;97220.78;4986338;28;20048;-61
2021/03/25 10:08:27;;;;;;;12.70;7.25;;;;;;;16.48;35.18;97222.75;4991928;28;20041;-66
2021/03/25 10:10:59;;;;;;;14.85;6.95;;;;;;;16.39;35.70;97227.88;5022581;28;20041;-60
2021/03/25 10:13:44;;;;;;;14.10;6.78;;;;;;;16.57;35.74;97217.63;5016954;28;20137;-59
2021/03/25 10:16:31;;;;;;;19.52;7.45;;;;;;;16.25;36.40;97206.50;5004392;28;20041;-59
2021/03/25 10:19:00;;;;;;;22.30;8.73;;;;;;;16.58;34.60;97210.09;5007544;28;20625;-62
2021/03/25 10:21:44;;;;;;;16.60;8.02;;;;;;;16.69;34.85;97205.38;4996958;28;20068;-61
2021/03/25 10:24:24;;;;;;;17.48;7.60;;;;;;;16.54;34.44;97201.03;4998228;28;20057;-61
2021/03/25 10:27:00;;;;;;;14.15;7.82;;;;;;;15.64;36.57;97198.00;5009735;28;20053;-57
2021/03/25 10:29:35;;;;;;;18.85;8.77;;;;;;;16.37;34.66;97194.31;5013212;28;20398;-60
2021/03/25 10:32:02;;;;;;;20.90;9.15;;;;;;;14.92;36.84;97194.81;5007727;28;20045;-61
2021/03/25 10:34:32;;;;;;;13.13;7.90;;;;;;;16.14;34.72;97187.13;5004113;28;20056;-60
2021/03/25 10:36:57;;;;;;;14.93;7.97;;;;;;;15.82;35.87;97189.81;5001776;28;20111;-59
2021/03/25 10:39:28;;;;;;;18.60;7.38;;;;;;;16.62;34.93;97192.34;4995570;28;20767;-62
2021/03/25 10:41:55;;;;;;;21.45;8.45;;;;;;;17.32;34.40;97189.13;5000366;28;20064;-59
2021/03/25 10:44:30;;;;;;;19.02;8.95;;;;;;;16.94;35.19;97176.94;4996066;28;20065;-59
2021/03/25 10:47:02;;;;;;;17.08;7.85;;;;;;;17.20;33.53;97184.81;5008622;28;20052;-59
2021/03/25 10:49:38;;;;;;;24.27;7.35;;;;;;;16.49;35.27;97180.06;5013021;28;20442;-63
2021/03/25 10:52:04;;;;;;;11.70;6.55;;;;;;;16.98;34.13;97181.28;5024319;28;20041;-66
2021/03/25 10:54:36;;;;;;;18.80;7.93;;;;;;;16.91;34.51;97184.06;5030363;28;20516;-61
2021/03/25 10:57:24;;;;;;;18.58;7.18;;;;;;;16.81;34.01;97171.00;5021454;28;20049;-66
2021/03/25 11:00:10;;;;;;;12.82;6.38;;;;;;;16.84;34.37;97170.25;5017877;28;20125;-63
2021/03/25 11:02:41;;;;;;;12.18;6.50;;;;;;;16.89;33.49;97169.03;5008970;28;20100;-59
2021/03/25 11:05:07;;;;;;;9.88;6.25;;;;;;;16.55;34.58;97161.91;4994347;28;20045;-56
2021/03/25 11:08:03;;;;;;;13.57;6.70;;;;;;;16.73;34.00;97155.59;5001770;28;20046;-59
2021/03/25 11:10:30;;;;;;;16.25;7.25;;;;;;;16.80;34.07;97158.38;5004868;28;20100;-57
2021/03/25 11:12:59;;;;;;;14.50;6.57;;;;;;;16.41;34.84;97146.13;5012638;28;20041;-56
2021/03/25 11:15:36;;;;;;;18.52;8.02;;;;;;;16.50;34.28;97147.69;5015493;28;20045;-58
2021/03/25 11:18:25;;;;;;;19.90;9.68;;;;;;;16.97;34.38;97145.72;5037079;28;20040;-60
2021/03/25 11:20:52;;;;;;;16.73;8.00;;;;;;;17.23;34.27;97141.69;5019969;28;20136;-58
2021/03/25 11:23:21;;;;;;;14.77;6.63;;;;;;;17.01;34.10;97138.19;5015510;28;20045;-60
2021/03/25 11:25:57;;;;;;;12.68;6.80;;;;;;;16.89;34.79;97136.66;5007168;28;20053;-60
2021/03/25 11:28:23;;;;;;;17.17;7.43;;;;;;;17.32;34.33;97146.81;5009888;28;20045;-62
2021/03/25 11:31:11;;;;;;;13.20;6.35;;;;;;;17.18;33.72;97136.59;5021238;28;20479;-58
2021/03/25 11:33:39;;;;;;;19.52;7.80;;;;;;;16.56;34.74;97137.81;5004782;28;20066;-58
2021/03/25 11:36:06;;;;;;;14.55;6.90;;;;;;;16.20;35.61;97132.28;4976233;28;20093;-64
2021/03/25 11:38:40;;;;;;;12.43;6.43;;;;;;;17.10;33.76;97133.03;4997641;28;20042;-62
2021/03/25 11:41:30;;;;;;;16.42;7.13;;;;;;;17.91;32.16;97122.03;5003386;28;20069;-57
2021/03/25 11:43:58;;;;;;;13.63;6.55;;;;;;;17.83;32.47;97119.69;5000906;28;20046;-58
2021/03/25 11:46:30;;;;;;;12.77;6.88;;;;;;;18.07;32.74;97118.78;4995317;28;20901;-59
2021/03/25 11:49:01;;;;;;;13.30;6.28;;;;;;;18.11;32.06;97124.28;5000991;28;20041;-59
2021/03/25 11:51:27;;;;;;;14.40;6.55;;;;;;;17.93;33.25;97116.91;4997705;28;20140;-61
2021/03/25 11:53:55;;;;;;;11.25;6.07;;;;;;;17.36;34.48;97115.16;4998762;28;20193;-56
2021/03/25 11:56:46;;;;;;;12.95;6.63;;;;;;;17.43;34.37;97117.13;5012415;28;20038;-60
2021/03/25 11:59:17;;;;;;;12.10;7.38;;;;;;;15.99;36.21;97116.44;5016977;28;20517;-59
2021/03/25 12:01:44;;;;;;;14.45;7.03;;;;;;;16.05;37.62;97109.38;5019298;28;20448;-61